sensor_id;sensor_type;location;lat;lon;timestamp;P1;durP1;ratioP1;P2;durP2;ratioP2
53670;SDS011;39571;48.612;8.088;2023-04-03T07:25:19;3.47;;;2.20;;
53670;SDS011;39571;48.612;8.088;2023-04-03T07:27:44;4.53;;;2.20;;
53670;SDS011;39571;48.612;8.088;2023-04-03T07:30:10;3.50;;;2.20;;
53670;SDS011;39571;48.612;8.088;2023-04-03T07:32:36;3.97;;;3.00;;
53670;SDS011;39571;48.612;8.088;2023-04-03T07:35:01;3.38;;;2.00;;
53670;SDS011;39571;48.612;8.088;2023-04-03T07:45:58;3.15;;;2.20;;
53670;SDS011;39571;48.612;8.088;2023-04-03T07:53:37;2.38;;;1.90;;
53670;SDS011;39571;48.612;8.088;2023-04-03T08:12:35;3.15;;;2.25;;
53670;SDS011;39571;48.612;8.088;2023-04-03T08:15:01;2.40;;;2.00;;
53670;SDS011;39571;48.612;8.088;2023-04-03T08:17:28;2.40;;;1.90;;
53670;SDS011;39571;48.612;8.088;2023-04-03T08:19:53;2.60;;;2.03;;
53670;SDS011;39571;48.612;8.088;2023-04-03T08:22:18;3.03;;;1.80;;
53670;SDS011;39571;48.612;8.088;2023-04-03T08:24:44;2.60;;;2.00;;
53670;SDS011;39571;48.612;8.088;2023-04-03T08:27:09;2.75;;;1.50;;
53670;SDS011;39571;48.612;8.088;2023-04-03T08:29:34;1.55;;;1.30;;
53670;SDS011;39571;48.612;8.088;2023-04-03T08:32:02;2.20;;;1.35;;
53670;SDS011;39571;48.612;8.088;2023-04-03T08:34:28;1.92;;;1.35;;
53670;SDS011;39571;48.612;8.088;2023-04-03T08:36:53;1.80;;;1.45;;
53670;SDS011;39571;48.612;8.088;2023-04-03T08:39:19;1.80;;;1.40;;
53670;SDS011;39571;48.612;8.088;2023-04-03T08:41:45;2.67;;;1.30;;
53670;SDS011;39571;48.612;8.088;2023-04-03T08:47:18;1.90;;;1.17;;
53670;SDS011;39571;48.612;8.088;2023-04-03T08:49:52;2.50;;;1.60;;
53670;SDS011;39571;48.612;8.088;2023-04-03T08:55:29;2.83;;;1.45;;
53670;SDS011;39571;48.612;8.088;2023-04-03T08:58:05;2.00;;;1.48;;
53670;SDS011;39571;48.612;8.088;2023-04-03T09:03:23;3.28;;;1.65;;
53670;SDS011;39571;48.612;8.088;2023-04-03T09:06:08;2.47;;;1.40;;
53670;SDS011;39571;48.612;8.088;2023-04-03T09:08:46;2.28;;;1.63;;
53670;SDS011;39571;48.612;8.088;2023-04-03T09:16:43;3.25;;;1.52;;
53670;SDS011;39571;48.612;8.088;2023-04-03T09:19:23;2.30;;;1.70;;
53670;SDS011;39571;48.612;8.088;2023-04-03T09:22:20;2.63;;;1.60;;
53670;SDS011;39571;48.612;8.088;2023-04-03T09:25:10;3.05;;;1.73;;
53670;SDS011;39571;48.612;8.088;2023-04-03T09:27:39;3.00;;;2.10;;
53670;SDS011;39571;48.612;8.088;2023-04-03T09:30:04;3.35;;;2.03;;
53670;SDS011;39571;48.612;8.088;2023-04-03T09:32:35;2.90;;;1.80;;
53670;SDS011;39571;48.612;8.088;2023-04-03T09:35:13;1.95;;;1.70;;
53670;SDS011;39571;48.612;8.088;2023-04-03T09:37:50;2.15;;;1.90;;
53670;SDS011;39571;48.612;8.088;2023-04-03T09:40:34;3.08;;;1.70;;
53670;SDS011;39571;48.612;8.088;2023-04-03T09:45:45;2.78;;;1.80;;
53670;SDS011;39571;48.612;8.088;2023-04-03T09:50:37;3.47;;;2.08;;
53670;SDS011;39571;48.612;8.088;2023-04-03T09:53:07;2.00;;;1.70;;
53670;SDS011;39571;48.612;8.088;2023-04-03T09:55:50;2.83;;;1.90;;
53670;SDS011;39571;48.612;8.088;2023-04-03T09:58:25;2.90;;;1.90;;
53670;SDS011;39571;48.612;8.088;2023-04-03T10:01:09;2.85;;;1.70;;
53670;SDS011;39571;48.612;8.088;2023-04-03T10:09:20;2.80;;;1.90;;
53670;SDS011;39571;48.612;8.088;2023-04-03T10:11:58;2.65;;;1.80;;
53670;SDS011;39571;48.612;8.088;2023-04-03T10:14:35;2.47;;;1.80;;
53670;SDS011;39571;48.612;8.088;2023-04-03T10:22:15;2.42;;;1.80;;
53670;SDS011;39571;48.612;8.088;2023-04-03T10:27:17;3.35;;;1.98;;
53670;SDS011;39571;48.612;8.088;2023-04-03T10:38:40;3.20;;;2.20;;
53670;SDS011;39571;48.612;8.088;2023-04-03T10:44:24;3.92;;;2.13;;
53670;SDS011;39571;48.612;8.088;2023-04-03T10:47:17;2.25;;;2.03;;
53670;SDS011;39571;48.612;8.088;2023-04-03T10:49:47;3.58;;;2.00;;
53670;SDS011;39571;48.612;8.088;2023-04-03T10:58:06;3.53;;;2.10;;
53670;SDS011;39571;48.612;8.088;2023-04-03T11:00:42;4.07;;;2.38;;
53670;SDS011;39571;48.612;8.088;2023-04-03T11:03:13;2.63;;;1.73;;
53670;SDS011;39571;48.612;8.088;2023-04-03T11:05:47;4.20;;;1.95;;
53670;SDS011;39571;48.612;8.088;2023-04-03T11:08:27;6.00;;;1.92;;
53670;SDS011;39571;48.612;8.088;2023-04-03T11:10:59;3.13;;;2.00;;
53670;SDS011;39571;48.612;8.088;2023-04-03T11:13:35;2.40;;;1.73;;
53670;SDS011;39571;48.612;8.088;2023-04-03T11:16:05;2.60;;;2.00;;
53670;SDS011;39571;48.612;8.088;2023-04-03T11:18:37;3.33;;;2.05;;
53670;SDS011;39571;48.612;8.088;2023-04-03T11:23:43;3.13;;;1.90;;
53670;SDS011;39571;48.612;8.088;2023-04-03T11:26:14;2.75;;;1.90;;
53670;SDS011;39571;48.612;8.088;2023-04-03T11:28:42;2.40;;;2.00;;
53670;SDS011;39571;48.612;8.088;2023-04-03T11:36:29;2.50;;;1.70;;
53670;SDS011;39571;48.612;8.088;2023-04-03T11:38:59;3.33;;;1.98;;
53670;SDS011;39571;48.612;8.088;2023-04-03T11:41:30;3.55;;;1.88;;
53670;SDS011;39571;48.612;8.088;2023-04-03T11:44:03;2.53;;;1.92;;
53670;SDS011;39571;48.612;8.088;2023-04-03T11:46:48;3.15;;;2.08;;
53670;SDS011;39571;48.612;8.088;2023-04-03T11:58:02;2.78;;;2.10;;
53670;SDS011;39571;48.612;8.088;2023-04-03T12:05:54;3.15;;;1.70;;
53670;SDS011;39571;48.612;8.088;2023-04-03T12:14:22;2.45;;;1.80;;
